Time;durP1;ratioP1;P1;durP2;ratioP2;P2;SDS_P1;SDS_P2;PMS_P1;PMS_P2;Temp;Humidity;BMP_temperature;BMP_pressure;BME280_temperature;BME280_humidity;BME280_pressure;Samples;Min_cycle;Max_cycle;Signal;HPM_P1;HPM_P2
2021/10/22 00:00:23;;;;;;;27.85;17.98;;;18.00;97.80;;;;;;5013315;28;20072;-75
2021/10/22 00:02:48;;;;;;;26.63;16.52;;;18.00;97.90;;;;;;5016482;28;20464;-74
2021/10/22 00:05:14;;;;;;;22.08;18.10;;;18.00;97.50;;;;;;5018589;28;20045;-75
2021/10/22 00:07:40;;;;;;;24.63;17.48;;;17.90;97.30;;;;;;5015104;28;20467;-74
2021/10/22 00:10:08;;;;;;;27.27;17.48;;;17.90;97.20;;;;;;5013251;28;20026;-74
2021/10/22 00:12:33;;;;;;;28.60;18.15;;;17.90;97.10;;;;;;5013337;28;20112;-76
2021/10/22 00:14:59;;;;;;;25.17;17.10;;;17.90;97.00;;;;;;5013260;28;20045;-76
2021/10/22 00:17:25;;;;;;;28.95;18.13;;;17.90;97.00;;;;;;5013023;28;20038;-75
2021/10/22 00:19:51;;;;;;;23.58;16.30;;;17.90;96.90;;;;;;5013018;28;20501;-78
2021/10/22 00:22:17;;;;;;;22.17;16.55;;;17.90;96.90;;;;;;5012915;28;20058;-76
2021/10/22 00:24:42;;;;;;;24.02;17.65;;;17.90;96.90;;;;;;4995407;28;20136;-76
2021/10/22 00:27:08;;;;;;;23.40;17.10;;;17.90;96.80;;;;;;5016655;28;20037;-75
2021/10/22 00:29:35;;;;;;;21.90;16.25;;;17.90;96.80;;;;;;5016792;28;20029;-75
2021/10/22 00:32:01;;;;;;;26.25;16.98;;;17.80;96.70;;;;;;5016666;28;20390;-75
2021/10/22 00:34:28;;;;;;;27.23;17.17;;;17.80;96.70;;;;;;4998898;28;20014;-74
2021/10/22 00:36:54;;;;;;;22.15;16.70;;;17.80;96.70;;;;;;5016989;28;20087;-75
2021/10/22 00:39:20;;;;;;;25.50;17.83;;;17.80;96.80;;;;;;5016905;28;20122;-76
2021/10/22 00:41:47;;;;;;;23.02;16.38;;;17.80;97.10;;;;;;5016485;28;20510;-75
2021/10/22 00:44:13;;;;;;;25.02;17.05;;;17.80;96.70;;;;;;5016731;28;20018;-74
2021/10/22 00:46:39;;;;;;;26.15;17.95;;;17.70;96.60;;;;;;4999559;28;20463;-75
2021/10/22 00:49:09;;;;;;;22.13;17.10;;;17.70;96.70;;;;;;5016497;28;20025;-74
2021/10/22 00:51:36;;;;;;;28.05;18.00;;;17.70;96.70;;;;;;5016661;28;20080;-76
2021/10/22 00:54:06;;;;;;;27.33;16.20;;;17.60;96.60;;;;;;5016619;28;20086;-76
2021/10/22 00:56:34;;;;;;;26.25;17.42;;;17.60;96.70;;;;;;5016348;28;20221;-74
2021/10/22 00:59:00;;;;;;;23.17;15.60;;;17.60;96.70;;;;;;5016347;28;20471;-75
2021/10/22 01:01:26;;;;;;;23.25;16.20;;;17.70;96.70;;;;;;4999032;28;20076;-74
2021/10/22 01:03:52;;;;;;;23.17;16.50;;;17.70;96.60;;;;;;4998904;28;20026;-76
2021/10/22 01:06:18;;;;;;;24.70;17.23;;;17.70;96.60;;;;;;5016162;28;20114;-74
2021/10/22 01:08:44;;;;;;;23.75;16.30;;;17.70;96.40;;;;;;5016376;28;20177;-75
2021/10/22 01:11:10;;;;;;;24.90;17.25;;;17.70;96.40;;;;;;4998340;28;20422;-74
2021/10/22 01:13:37;;;;;;;23.30;16.67;;;17.70;96.40;;;;;;4998384;28;20543;-76
2021/10/22 01:16:04;;;;;;;25.42;16.75;;;17.70;96.50;;;;;;5016018;28;20489;-74
2021/10/22 01:18:30;;;;;;;24.83;16.63;;;17.70;96.50;;;;;;5016126;28;20018;-75
2021/10/22 01:21:00;;;;;;;24.55;17.15;;;17.70;96.60;;;;;;5034638;22;21168;-73
2021/10/22 01:23:26;;;;;;;23.05;16.40;;;17.70;96.50;;;;;;5055893;28;20056;-71
2021/10/22 01:25:52;;;;;;;25.30;16.83;;;17.70;96.40;;;;;;5055891;28;20454;-74
2021/10/22 01:28:19;;;;;;;22.95;16.88;;;17.70;96.40;;;;;;5055803;28;20083;-72
2021/10/22 01:30:46;;;;;;;25.15;16.67;;;17.70;96.30;;;;;;5047669;28;20033;-73
2021/10/22 01:33:12;;;;;;;22.70;17.45;;;17.70;96.40;;;;;;5035806;28;20017;-73
2021/10/22 01:35:38;;;;;;;23.55;16.83;;;17.60;96.40;;;;;;5036049;28;20037;-73
2021/10/22 01:38:04;;;;;;;23.90;17.92;;;17.60;96.40;;;;;;5035743;28;20022;-73
2021/10/22 01:40:30;;;;;;;23.70;17.17;;;17.60;96.40;;;;;;5035909;28;20044;-73
2021/10/22 01:42:57;;;;;;;25.50;17.30;;;17.60;96.50;;;;;;5001894;28;20502;-73
2021/10/22 01:45:23;;;;;;;26.23;18.08;;;17.60;96.60;;;;;;5018121;28;20478;-73
2021/10/22 01:47:49;;;;;;;25.58;18.00;;;17.60;96.60;;;;;;5035853;28;20079;-75
2021/10/22 01:50:15;;;;;;;30.95;17.23;;;17.60;96.60;;;;;;5035510;28;20029;-73
2021/10/22 01:52:42;;;;;;;23.80;16.67;;;17.60;96.60;;;;;;5035353;28;20120;-73
2021/10/22 01:55:09;;;;;;;24.92;16.95;;;17.60;96.60;;;;;;5035420;28;20441;-74
2021/10/22 01:57:35;;;;;;;27.98;17.48;;;17.60;96.50;;;;;;5035616;28;20021;-74
2021/10/22 02:00:01;;;;;;;23.98;16.58;;;17.60;96.50;;;;;;5035341;28;20091;-73
2021/10/22 02:02:27;;;;;;;23.75;17.17;;;17.60;96.60;;;;;;5035418;28;20032;-74
2021/10/22 02:04:52;;;;;;;24.17;17.00;;;17.60;96.60;;;;;;5035217;28;20029;-73
2021/10/22 02:07:18;;;;;;;23.27;17.23;;;17.60;96.60;;;;;;5035104;28;20030;-73
2021/10/22 02:09:44;;;;;;;21.63;17.08;;;17.60;96.60;;;;;;5035035;28;20462;-73
2021/10/22 02:12:09;;;;;;;22.48;16.42;;;17.60;96.50;;;;;;5035056;28;20022;-73
2021/10/22 02:14:35;;;;;;;23.98;17.08;;;17.70;96.50;;;;;;5035153;28;20100;-73
2021/10/22 02:17:02;;;;;;;22.33;16.42;;;17.60;96.50;;;;;;5034842;28;20033;-73
2021/10/22 02:19:28;;;;;;;27.02;17.40;;;17.60;96.50;;;;;;5034785;28;20036;-73
2021/10/22 02:21:53;;;;;;;20.90;15.30;;;17.60;96.50;;;;;;5034404;28;20414;-73
2021/10/22 02:24:19;;;;;;;23.73;15.27;;;17.60;96.60;;;;;;5034567;28;20055;-74
2021/10/22 02:26:45;;;;;;;22.17;16.02;;;17.70;96.60;;;;;;5034809;28;20084;-74
2021/10/22 02:29:10;;;;;;;22.65;16.00;;;17.70;96.60;;;;;;5034813;28;20029;-74
2021/10/22 02:31:36;;;;;;;23.40;15.55;;;17.70;96.60;;;;;;5034580;28;20027;-73
2021/10/22 02:34:02;;;;;;;28.67;16.38;;;17.70;96.50;;;;;;5034619;28;20437;-74
2021/10/22 02:36:28;;;;;;;21.98;16.48;;;17.70;96.50;;;;;;5034837;28;20030;-73
2021/10/22 02:38:53;;;;;;;26.48;18.13;;;17.70;96.40;;;;;;5034663;28;20047;-73
2021/10/22 02:41:19;;;;;;;33.83;20.20;;;17.70;96.50;;;;;;5034589;28;20037;-72
2021/10/22 02:43:45;;;;;;;30.98;19.20;;;17.70;96.40;;;;;;5034565;28;20017;-73
2021/10/22 02:46:11;;;;;;;25.10;17.55;;;17.70;96.40;;;;;;5034504;28;20107;-74
2021/10/22 02:48:36;;;;;;;33.20;20.17;;;17.70;96.40;;;;;;5034124;28;20375;-72
2021/10/22 02:51:02;;;;;;;29.45;19.90;;;17.70;96.30;;;;;;5034263;28;20033;-73
2021/10/22 02:53:29;;;;;;;30.00;19.55;;;17.70;96.40;;;;;;5034419;28;20104;-74
2021/10/22 02:55:55;;;;;;;23.38;17.23;;;17.70;96.50;;;;;;5034346;28;20025;-74
2021/10/22 02:58:20;;;;;;;36.67;25.55;;;17.60;96.40;;;;;;5034388;28;20490;-72
2021/10/22 03:00:46;;;;;;;42.25;29.48;;;17.60;96.50;;;;;;5034349;28;20437;-72
2021/10/22 03:03:12;;;;;;;39.22;30.45;;;17.60;96.50;;;;;;5034222;28;20032;-74
2021/10/22 03:05:37;;;;;;;35.05;26.65;;;17.60;96.50;;;;;;5033937;28;20048;-73
2021/10/22 03:08:03;;;;;;;25.98;20.90;;;17.60;96.50;;;;;;5034410;28;20025;-73
2021/10/22 03:10:29;;;;;;;27.80;18.83;;;17.60;96.50;;;;;;5034063;28;20057;-71
2021/10/22 03:12:55;;;;;;;24.80;18.98;;;17.60;96.50;;;;;;5034102;28;20022;-73
2021/10/22 03:15:20;;;;;;;22.10;17.60;;;17.60;96.50;;;;;;5033850;28;20454;-71
2021/10/22 03:17:46;;;;;;;25.80;17.65;;;17.60;96.60;;;;;;5033986;28;20026;-73
2021/10/22 03:20:12;;;;;;;25.65;16.30;;;17.60;96.60;;;;;;5034498;28;20057;-74
2021/10/22 03:22:39;;;;;;;23.35;15.63;;;17.50;96.60;;;;;;5037452;28;20371;-74
2021/10/22 03:25:06;;;;;;;23.65;14.85;;;17.60;96.70;;;;;;5035722;28;20053;-73
2021/10/22 03:27:34;;;;;;;21.83;15.18;;;17.60;96.70;;;;;;5035452;28;20041;-74
2021/10/22 03:30:00;;;;;;;22.45;15.80;;;17.50;96.60;;;;;;5038632;28;20474;-73
2021/10/22 03:32:26;;;;;;;24.27;15.20;;;17.60;96.70;;;;;;5047216;28;20029;-73
2021/10/22 03:34:52;;;;;;;20.90;15.80;;;17.50;96.70;;;;;;5055995;28;20064;-72
2021/10/22 03:37:18;;;;;;;22.60;16.48;;;17.50;96.70;;;;;;5043334;28;20022;-72
2021/10/22 03:39:44;;;;;;;21.50;15.57;;;17.50;96.70;;;;;;5033634;28;20037;-74
2021/10/22 03:42:10;;;;;;;22.80;15.25;;;17.50;96.80;;;;;;5033224;28;20505;-74
2021/10/22 03:44:37;;;;;;;21.80;16.35;;;17.40;96.80;;;;;;5033354;28;20034;-73
2021/10/22 03:47:03;;;;;;;18.77;15.30;;;17.40;96.80;;;;;;5033259;28;20041;-73
2021/10/22 03:49:29;;;;;;;25.77;16.60;;;17.40;96.80;;;;;;5033322;28;20069;-73
2021/10/22 03:51:55;;;;;;;22.52;17.70;;;17.40;96.80;;;;;;5033188;28;20411;-73
2021/10/22 03:54:20;;;;;;;21.88;17.15;;;17.40;96.80;;;;;;5033026;28;20489;-73
2021/10/22 03:56:46;;;;;;;21.88;15.75;;;17.40;96.80;;;;;;5033597;28;20032;-74
2021/10/22 03:59:15;;;;;;;18.38;15.02;;;17.40;96.80;;;;;;5033201;28;20060;-74
2021/10/22 04:01:41;;;;;;;22.15;15.75;;;17.40;96.60;;;;;;5033114;28;20070;-70
2021/10/22 04:04:07;;;;;;;27.90;16.13;;;17.30;96.70;;;;;;5032971;28;20463;-72
2021/10/22 04:06:33;;;;;;;21.98;17.38;;;17.40;96.70;;;;;;5033237;28;20057;-72
2021/10/22 04:08:58;;;;;;;26.27;17.17;;;17.30;96.80;;;;;;5033025;28;20029;-72
2021/10/22 04:11:24;;;;;;;23.20;15.00;;;17.30;96.70;;;;;;5033053;28;20036;-73
2021/10/22 04:13:50;;;;;;;22.33;15.52;;;17.30;96.60;;;;;;5032755;28;20474;-72
2021/10/22 04:16:15;;;;;;;26.48;15.55;;;17.30;96.60;;;;;;5032982;28;20105;-72
2021/10/22 04:18:41;;;;;;;23.25;16.25;;;17.30;96.70;;;;;;5033190;28;20029;-72
2021/10/22 04:21:07;;;;;;;23.48;15.40;;;17.30;96.60;;;;;;5032654;28;20042;-72
2021/10/22 04:23:32;;;;;;;20.58;14.43;;;17.30;96.70;;;;;;5032879;28;20556;-72
2021/10/22 04:25:58;;;;;;;23.35;15.40;;;17.30;96.70;;;;;;5033052;28;20427;-72
2021/10/22 04:28:24;;;;;;;23.40;15.23;;;17.30;96.70;;;;;;5033086;28;20022;-73
2021/10/22 04:30:49;;;;;;;22.42;15.60;;;17.30;96.70;;;;;;5032489;28;20033;-73
2021/10/22 04:33:15;;;;;;;21.65;15.52;;;17.30;96.70;;;;;;5032578;28;20349;-72
2021/10/22 04:35:41;;;;;;;23.40;15.00;;;17.30;96.70;;;;;;5032757;28;20029;-74
2021/10/22 04:40:52;;;;;;;23.55;16.85;;;17.30;96.60;;;;;;5032403;28;20036;-74
2021/10/22 04:43:19;;;;;;;23.45;16.50;;;17.30;96.60;;;;;;5032419;28;20029;-72
2021/10/22 04:45:49;;;;;;;23.10;16.10;;;17.30;96.50;;;;;;5032432;28;20412;-73
2021/10/22 04:48:16;;;;;;;25.75;16.00;;;17.30;96.40;;;;;;5032535;28;20029;-73
2021/10/22 04:50:47;;;;;;;24.02;15.30;;;17.30;96.30;;;;;;5032503;28;20029;-74
2021/10/22 04:53:12;;;;;;;21.00;16.08;;;17.30;96.30;;;;;;5032531;28;20164;-73
2021/10/22 04:55:38;;;;;;;27.45;15.05;;;17.30;96.20;;;;;;5032362;28;20120;-73
2021/10/22 04:58:05;;;;;;;22.08;16.02;;;17.30;96.30;;;;;;5032447;28;20037;-73
2021/10/22 05:00:31;;;;;;;28.10;16.08;;;17.30;96.30;;;;;;5032679;28;20053;-74
2021/10/22 05:02:57;;;;;;;27.98;17.80;;;17.30;96.30;;;;;;5032548;28;20072;-74
2021/10/22 05:05:23;;;;;;;23.75;16.42;;;17.30;96.20;;;;;;5032606;28;20135;-75
2021/10/22 05:07:49;;;;;;;22.30;16.25;;;17.30;96.20;;;;;;5032591;28;20040;-73
2021/10/22 05:10:14;;;;;;;28.48;16.83;;;17.30;96.20;;;;;;5032488;28;20454;-75
2021/10/22 05:12:40;;;;;;;24.50;15.88;;;17.40;96.20;;;;;;5035076;28;20025;-74
2021/10/22 05:15:08;;;;;;;24.95;16.05;;;17.40;96.00;;;;;;5035870;28;20446;-72
2021/10/22 05:17:34;;;;;;;24.15;16.23;;;17.40;96.00;;;;;;5036303;28;20458;-72
2021/10/22 05:20:00;;;;;;;25.25;15.88;;;17.40;96.00;;;;;;5035697;28;20463;-72
2021/10/22 05:22:26;;;;;;;27.65;16.95;;;17.40;95.90;;;;;;5035931;28;20042;-72
2021/10/22 05:24:52;;;;;;;28.98;15.73;;;17.40;95.90;;;;;;5035854;28;20025;-71
2021/10/22 05:27:18;;;;;;;21.77;15.50;;;17.40;95.90;;;;;;5035971;28;20030;-71
2021/10/22 05:29:44;;;;;;;23.30;16.30;;;17.40;95.80;;;;;;5035785;28;20467;-73
2021/10/22 05:32:10;;;;;;;22.08;14.85;;;17.40;95.70;;;;;;5035693;28;20032;-74
2021/10/22 05:34:35;;;;;;;21.65;14.00;;;17.40;95.70;;;;;;5036006;28;20104;-73
2021/10/22 05:37:02;;;;;;;24.58;15.38;;;17.40;95.70;;;;;;5035830;28;20021;-73
2021/10/22 05:39:29;;;;;;;25.85;16.33;;;17.40;95.60;;;;;;5035583;28;20075;-72
2021/10/22 05:41:55;;;;;;;26.15;16.88;;;17.40;95.60;;;;;;5035633;28;20097;-75
2021/10/22 05:44:23;;;;;;;28.65;17.73;;;17.40;95.50;;;;;;5035508;28;20025;-75
2021/10/22 05:46:52;;;;;;;27.75;17.80;;;17.50;95.50;;;;;;5035295;28;20445;-73
2021/10/22 05:49:19;;;;;;;24.55;17.02;;;17.50;95.50;;;;;;5035550;28;20029;-72
2021/10/22 05:51:45;;;;;;;22.95;16.35;;;17.50;95.40;;;;;;5029050;28;20101;-71
2021/10/22 05:54:11;;;;;;;25.17;14.90;;;17.50;95.40;;;;;;5017742;28;20044;-78
2021/10/22 05:56:37;;;;;;;27.42;16.35;;;17.50;95.40;;;;;;5020318;28;20432;-73
2021/10/22 05:59:03;;;;;;;26.02;15.25;;;17.50;95.50;;;;;;5015168;28;20097;-75
2021/10/22 06:01:29;;;;;;;28.55;16.00;;;17.50;95.40;;;;;;5028578;28;20064;-76
2021/10/22 06:03:55;;;;;;;26.83;15.25;;;17.50;95.40;;;;;;5025277;28;20034;-74
2021/10/22 06:06:21;;;;;;;24.77;15.82;;;17.60;95.40;;;;;;5015059;28;20026;-75
2021/10/22 06:08:47;;;;;;;23.23;15.93;;;17.60;95.30;;;;;;5014715;28;20030;-74
2021/10/22 06:11:13;;;;;;;30.05;16.67;;;17.60;95.20;;;;;;5020061;28;20018;-76
2021/10/22 06:13:42;;;;;;;26.48;15.25;;;17.70;95.20;;;;;;5014391;28;20333;-75
2021/10/22 06:16:10;;;;;;;25.05;16.23;;;17.70;95.00;;;;;;5014654;28;20026;-77
2021/10/22 06:18:47;;;;;;;23.17;15.40;;;17.70;95.00;;;;;;5026758;28;20108;-75
2021/10/22 06:26:19;;;;;;;24.02;14.23;;;17.80;94.80;;;;;;5034014;28;20045;-76
2021/10/22 06:28:46;;;;;;;26.05;17.50;;;17.90;94.80;;;;;;5034112;28;20075;-77
2021/10/22 06:31:12;;;;;;;28.38;16.05;;;17.90;94.70;;;;;;5034148;28;20100;-75
2021/10/22 06:33:38;;;;;;;28.10;15.27;;;18.00;94.50;;;;;;5034078;28;20482;-75
2021/10/22 06:36:06;;;;;;;24.60;15.13;;;18.10;94.30;;;;;;5034132;28;20029;-74
2021/10/22 06:38:32;;;;;;;22.70;13.80;;;18.20;94.20;;;;;;5034119;28;20021;-76
2021/10/22 06:40:58;;;;;;;28.75;14.55;;;18.20;94.00;;;;;;5017261;28;20038;-76
2021/10/22 06:43:24;;;;;;;23.55;14.48;;;18.30;93.80;;;;;;5014220;28;20018;-75
2021/10/22 06:45:51;;;;;;;20.65;14.00;;;18.40;93.70;;;;;;5014092;28;20121;-75
2021/10/22 06:48:17;;;;;;;24.75;15.75;;;18.50;93.50;;;;;;5022438;28;20025;-76
2021/10/22 06:50:44;;;;;;;25.95;13.88;;;18.50;93.30;;;;;;5018207;28;20034;-75
2021/10/22 06:53:11;;;;;;;32.58;15.43;;;18.60;93.30;;;;;;5027107;28;20029;-76
2021/10/22 06:55:37;;;;;;;28.70;14.13;;;18.60;93.10;;;;;;5028554;28;20425;-75
2021/10/22 06:58:04;;;;;;;27.70;14.45;;;18.60;93.00;;;;;;5015421;28;20030;-74
2021/10/22 07:00:30;;;;;;;24.48;13.68;;;18.70;92.90;;;;;;5015541;28;20109;-76
2021/10/22 07:02:56;;;;;;;22.70;13.70;;;18.70;92.90;;;;;;5014636;28;20042;-74
2021/10/22 07:08:10;;;;;;;24.00;13.38;;;18.80;92.70;;;;;;4993526;28;20029;-76
2021/10/22 07:10:36;;;;;;;23.95;14.20;;;18.80;92.60;;;;;;5033737;28;20121;-76
2021/10/22 07:13:06;;;;;;;21.33;13.50;;;18.90;92.50;;;;;;5034386;28;20108;-75
2021/10/22 07:15:32;;;;;;;29.10;14.32;;;19.00;92.30;;;;;;5033983;28;20509;-75
2021/10/22 07:18:02;;;;;;;25.40;12.95;;;19.10;92.10;;;;;;5033947;28;20076;-75
2021/10/22 07:20:29;;;;;;;28.10;14.65;;;19.10;92.00;;;;;;5033796;28;20075;-76
2021/10/22 07:23:02;;;;;;;25.33;13.05;;;19.20;91.80;;;;;;5016117;28;20125;-75
2021/10/22 07:25:28;;;;;;;23.25;14.10;;;19.20;91.80;;;;;;5033989;28;20045;-74
2021/10/22 07:27:54;;;;;;;27.88;13.68;;;19.30;91.70;;;;;;5033673;28;20017;-75
2021/10/22 07:30:21;;;;;;;21.38;12.63;;;19.30;91.70;;;;;;5033950;28;20386;-75
2021/10/22 07:32:47;;;;;;;24.50;13.43;;;19.40;91.70;;;;;;5033581;28;20021;-75
2021/10/22 07:35:14;;;;;;;32.85;14.00;;;19.40;91.50;;;;;;5033663;28;20034;-77
2021/10/22 07:37:40;;;;;;;25.83;13.10;;;19.40;91.40;;;;;;5033890;28;20051;-76
2021/10/22 07:40:07;;;;;;;31.10;13.75;;;19.50;91.30;;;;;;5016025;28;20116;-77
2021/10/22 07:42:33;;;;;;;30.33;12.85;;;19.50;91.20;;;;;;5033626;28;20029;-76
2021/10/22 07:45:00;;;;;;;20.60;12.55;;;19.60;91.00;;;;;;5033236;28;20545;-75
2021/10/22 07:47:31;;;;;;;31.42;14.15;;;19.60;90.80;;;;;;5033345;28;20140;-74
2021/10/22 07:49:57;;;;;;;30.42;14.00;;;19.70;90.70;;;;;;5033397;28;20026;-75
2021/10/22 07:52:25;;;;;;;31.55;14.52;;;19.70;90.60;;;;;;5015723;28;20033;-76
2021/10/22 07:54:52;;;;;;;38.15;13.65;;;19.70;90.40;;;;;;5033126;28;20026;-74
2021/10/22 07:57:18;;;;;;;22.75;13.55;;;19.70;90.50;;;;;;5032973;28;20083;-74
2021/10/22 07:59:45;;;;;;;31.05;13.63;;;19.80;90.40;;;;;;5015314;28;20025;-76
2021/10/22 08:02:12;;;;;;;32.08;13.93;;;19.80;90.30;;;;;;5033026;28;20029;-76
2021/10/22 08:04:46;;;;;;;26.55;15.68;;;19.90;90.10;;;;;;5033116;28;20029;-75
2021/10/22 08:07:16;;;;;;;23.27;14.45;;;19.90;90.40;;;;;;5033140;28;20067;-76
2021/10/22 08:09:43;;;;;;;25.50;12.95;;;20.00;90.20;;;;;;5032628;28;20106;-75
2021/10/22 08:12:10;;;;;;;21.80;13.07;;;20.10;89.60;;;;;;5032910;28;20033;-77
2021/10/22 08:14:36;;;;;;;34.25;13.50;;;20.20;89.20;;;;;;5032830;28;20022;-77
2021/10/22 08:17:02;;;;;;;21.42;12.07;;;20.20;89.00;;;;;;5033165;28;20028;-76
2021/10/22 08:19:27;;;;;;;24.40;13.10;;;20.30;88.90;;;;;;5033039;28;20096;-75
2021/10/22 08:24:35;;;;;;;20.85;10.65;;;20.30;88.90;;;;;;5033137;28;20033;-75
2021/10/22 08:27:01;;;;;;;25.52;12.15;;;20.50;89.10;;;;;;5015260;28;20115;-74
2021/10/22 08:29:27;;;;;;;24.38;12.82;;;20.60;88.80;;;;;;5015338;28;20451;-77
2021/10/22 08:31:54;;;;;;;24.48;12.15;;;20.70;88.90;;;;;;5015058;28;20107;-77
2021/10/22 08:34:20;;;;;;;25.55;12.18;;;20.80;88.30;;;;;;5032772;28;20024;-76
2021/10/22 08:36:46;;;;;;;21.15;12.27;;;20.90;88.10;;;;;;5032796;28;20025;-76
2021/10/22 08:39:12;;;;;;;26.00;11.70;;;21.00;87.70;;;;;;5032586;28;20025;-76
2021/10/22 08:41:38;;;;;;;29.33;12.32;;;21.20;87.00;;;;;;5032805;28;20029;-75
2021/10/22 08:44:06;;;;;;;22.58;11.75;;;21.30;86.10;;;;;;5032551;28;20083;-75
2021/10/22 08:46:33;;;;;;;20.90;12.15;;;21.40;85.80;;;;;;5034124;28;20048;-76
2021/10/22 08:48:59;;;;;;;17.60;11.10;;;21.50;85.10;;;;;;5036675;28;20053;-75
2021/10/22 08:51:26;;;;;;;24.65;10.75;;;21.60;85.00;;;;;;5037002;28;20029;-77
2021/10/22 08:53:52;;;;;;;15.45;8.38;;;21.70;84.80;;;;;;5019621;28;20022;-75
2021/10/22 08:56:18;;;;;;;18.92;10.02;;;21.80;84.50;;;;;;5037010;28;20080;-75
2021/10/22 08:58:44;;;;;;;26.15;10.70;;;22.00;85.20;;;;;;5036569;28;20577;-75
2021/10/22 09:01:10;;;;;;;20.23;10.23;;;22.10;84.50;;;;;;5036283;28;20037;-74
2021/10/22 09:03:39;;;;;;;20.23;8.80;;;22.20;84.00;;;;;;5036651;28;20021;-76
2021/10/22 09:06:14;;;;;;;16.48;7.90;;;22.30;83.70;;;;;;5036169;28;20339;-76
2021/10/22 09:08:43;;;;;;;20.20;7.60;;;22.40;83.10;;;;;;5036260;28;20073;-76
2021/10/22 09:11:33;;;;;;;17.58;7.60;;;22.50;83.00;;;;;;5035753;28;20029;-77
2021/10/22 09:14:05;;;;;;;22.65;8.23;;;22.50;83.10;;;;;;5028935;28;20022;-77
2021/10/22 09:16:31;;;;;;;23.00;7.18;;;22.60;82.80;;;;;;5036373;28;20025;-76
2021/10/22 09:18:58;;;;;;;15.80;6.90;;;22.60;82.80;;;;;;5036233;28;20026;-77
2021/10/22 09:21:27;;;;;;;18.73;7.28;;;22.70;82.70;;;;;;5035435;28;20115;-76
2021/10/22 09:24:20;;;;;;;14.25;5.95;;;22.80;81.90;;;;;;5035924;28;20113;-75
2021/10/22 09:26:51;;;;;;;14.10;6.53;;;22.80;81.30;;;;;;5035850;28;20116;-75
2021/10/22 09:29:25;;;;;;;20.42;6.72;;;22.90;80.60;;;;;;5036290;28;20355;-75
2021/10/22 09:31:51;;;;;;;16.88;5.85;;;22.90;80.20;;;;;;5035985;28;20037;-76
2021/10/22 09:34:37;;;;;;;14.18;5.75;;;23.00;80.10;;;;;;5035616;28;20033;-75
2021/10/22 09:37:14;;;;;;;17.80;6.55;;;23.10;79.50;;;;;;5017948;28;20025;-76
2021/10/22 09:39:40;;;;;;;25.92;6.57;;;23.20;79.00;;;;;;5018258;28;20383;-75
2021/10/22 09:42:16;;;;;;;16.30;6.55;;;23.30;77.50;;;;;;5035704;28;20131;-77
2021/10/22 09:44:46;;;;;;;18.52;6.68;;;23.50;77.00;;;;;;5035951;28;20029;-77
2021/10/22 09:47:22;;;;;;;13.95;7.13;;;23.60;76.80;;;;;;5036029;28;20034;-75
2021/10/22 09:49:52;;;;;;;21.58;7.78;;;23.60;76.10;;;;;;5036273;28;20097;-75
2021/10/22 09:52:28;;;;;;;17.45;7.20;;;23.70;75.90;;;;;;5036136;28;20040;-77
2021/10/22 09:55:09;;;;;;;20.20;7.15;;;23.80;75.90;;;;;;5035155;28;20033;-75
2021/10/22 09:57:35;;;;;;;14.93;7.78;;;23.80;76.00;;;;;;5016814;28;20174;-76
2021/10/22 10:00:22;;;;;;;19.42;7.95;;;23.70;75.10;;;;;;5035033;28;20378;-76
2021/10/22 10:02:48;;;;;;;15.20;7.18;;;23.70;75.50;;;;;;5035246;28;20453;-76
2021/10/22 10:05:14;;;;;;;19.35;6.85;;;23.70;76.00;;;;;;5035307;28;20026;-77
2021/10/22 10:07:41;;;;;;;16.63;6.72;;;23.70;75.50;;;;;;5035488;28;20028;-77
2021/10/22 10:10:08;;;;;;;16.45;6.63;;;23.70;75.40;;;;;;5034055;28;20463;-76
2021/10/22 10:12:38;;;;;;;14.30;6.35;;;23.70;75.40;;;;;;5034940;28;20029;-75
2021/10/22 10:15:06;;;;;;;14.57;6.28;;;23.60;74.70;;;;;;5034451;28;20022;-75
2021/10/22 10:17:46;;;;;;;20.27;6.93;;;23.60;74.90;;;;;;5016830;28;20038;-77
2021/10/22 10:20:18;;;;;;;17.60;6.10;;;23.60;74.70;;;;;;5034209;28;20030;-77
2021/10/22 10:22:46;;;;;;;14.40;6.15;;;23.60;74.70;;;;;;5012519;28;20490;-78
2021/10/22 10:25:13;;;;;;;15.65;5.88;;;23.60;74.60;;;;;;5014341;28;20025;-77
2021/10/22 10:27:44;;;;;;;16.73;6.82;;;23.60;73.70;;;;;;5014391;28;20026;-77
2021/10/22 10:30:11;;;;;;;16.38;6.72;;;23.70;73.50;;;;;;5013137;28;20142;-75
2021/10/22 10:32:41;;;;;;;16.35;6.25;;;23.70;73.60;;;;;;5014057;28;20075;-77
2021/10/22 10:35:12;;;;;;;14.75;6.10;;;23.70;72.80;;;;;;5014058;28;20387;-77
2021/10/22 10:37:47;;;;;;;18.95;6.63;;;23.70;72.50;;;;;;5013824;28;20501;-75
2021/10/22 10:40:21;;;;;;;15.40;5.72;;;23.80;72.50;;;;;;5013694;28;20014;-76
2021/10/22 10:43:01;;;;;;;18.70;6.68;;;23.80;71.80;;;;;;5013724;28;20030;-76
2021/10/22 10:45:30;;;;;;;17.05;6.25;;;23.80;71.80;;;;;;5013686;28;20044;-75
2021/10/22 10:48:07;;;;;;;14.18;6.05;;;23.80;72.50;;;;;;5014123;28;20026;-75
2021/10/22 10:51:04;;;;;;;17.20;6.68;;;23.80;72.10;;;;;;5014128;28;20030;-78
2021/10/22 10:53:43;;;;;;;14.07;6.20;;;23.80;72.60;;;;;;5014299;28;20022;-77
2021/10/22 10:56:18;;;;;;;23.88;7.53;;;23.80;72.70;;;;;;5014061;28;20533;-76
2021/10/22 10:58:45;;;;;;;18.85;7.53;;;23.80;73.60;;;;;;5013767;28;20049;-75
2021/10/22 11:01:52;;;;;;;24.52;8.32;;;23.80;73.80;;;;;;5013413;28;20132;-75
2021/10/22 11:04:47;;;;;;;21.67;7.80;;;23.80;73.60;;;;;;5005361;28;20124;-75
2021/10/22 11:07:32;;;;;;;17.80;7.93;;;23.80;72.00;;;;;;5013515;28;20069;-75
2021/10/22 11:09:59;;;;;;;18.52;7.88;;;23.80;73.30;;;;;;5012795;28;20022;-75
2021/10/22 11:12:25;;;;;;;20.63;8.55;;;23.80;72.80;;;;;;5013244;28;20108;-76
2021/10/22 11:14:57;;;;;;;15.95;7.28;;;23.80;72.80;;;;;;5013402;28;20080;-76
2021/10/22 11:17:30;;;;;;;14.73;6.78;;;23.80;72.40;;;;;;5012862;28;20037;-76
2021/10/22 11:19:58;;;;;;;16.83;6.88;;;23.80;72.70;;;;;;5013371;28;20054;-75
2021/10/22 11:22:26;;;;;;;15.43;6.13;;;23.80;72.90;;;;;;5011753;28;20058;-78
2021/10/22 11:24:52;;;;;;;14.65;6.03;;;23.70;72.80;;;;;;5013658;28;20029;-79
2021/10/22 11:27:20;;;;;;;17.60;6.30;;;23.80;72.80;;;;;;5013485;28;20407;-78
2021/10/22 11:29:51;;;;;;;21.38;6.75;;;23.70;72.70;;;;;;5013562;28;20026;-78
2021/10/22 11:32:18;;;;;;;15.35;6.80;;;23.70;72.70;;;;;;5013255;28;20116;-75
2021/10/22 11:34:48;;;;;;;18.45;7.10;;;23.80;72.50;;;;;;5013863;28;20021;-74
2021/10/22 11:37:17;;;;;;;15.75;6.22;;;23.80;72.40;;;;;;5013401;28;20535;-76
2021/10/22 11:39:51;;;;;;;15.48;5.75;;;23.80;72.20;;;;;;5013584;28;20479;-77
2021/10/22 11:42:30;;;;;;;14.32;5.72;;;23.80;71.90;;;;;;5013433;28;20413;-74
2021/10/22 11:45:03;;;;;;;19.63;6.35;;;23.80;70.20;;;;;;5013302;28;20352;-76
2021/10/22 11:47:39;;;;;;;15.35;5.88;;;23.80;71.70;;;;;;5013395;28;20030;-75
2021/10/22 11:50:23;;;;;;;14.93;6.05;;;23.70;70.30;;;;;;5013187;28;20029;-77
2021/10/22 11:53:14;;;;;;;17.00;6.53;;;23.60;70.10;;;;;;5013257;28;20022;-76
2021/10/22 11:55:42;;;;;;;18.77;6.72;;;23.60;70.10;;;;;;5013125;28;20112;-75
2021/10/22 11:58:09;;;;;;;12.50;5.47;;;23.50;71.30;;;;;;5012957;28;20029;-76
2021/10/22 12:00:37;;;;;;;23.80;6.55;;;23.50;71.50;;;;;;5012502;28;20359;-76
2021/10/22 12:03:03;;;;;;;14.30;5.35;;;23.60;71.60;;;;;;5012668;28;20044;-77
2021/10/22 12:05:30;;;;;;;13.52;5.57;;;23.60;72.10;;;;;;5012653;28;20438;-75
2021/10/22 12:07:57;;;;;;;16.83;6.68;;;23.60;72.90;;;;;;5012757;28;20430;-76
2021/10/22 12:10:23;;;;;;;20.80;6.57;;;23.60;73.80;;;;;;5012681;28;20085;-78
2021/10/22 12:12:54;;;;;;;18.20;5.82;;;23.50;75.40;;;;;;5012696;28;20208;-76
2021/10/22 12:15:31;;;;;;;18.95;6.40;;;23.50;77.20;;;;;;5012406;28;20030;-78
2021/10/22 12:18:04;;;;;;;19.17;6.28;;;23.50;77.50;;;;;;5013112;28;20502;-77
2021/10/22 12:20:31;;;;;;;21.85;6.32;;;23.40;78.00;;;;;;5012923;28;20057;-77
2021/10/22 12:23:29;;;;;;;21.08;6.25;;;23.50;78.60;;;;;;5015545;28;20061;-76
2021/10/22 12:25:55;;;;;;;23.20;7.55;;;23.50;78.70;;;;;;5016999;28;20038;-76
2021/10/22 12:28:27;;;;;;;22.10;6.88;;;23.60;78.90;;;;;;5017970;28;20469;-75
2021/10/22 12:31:09;;;;;;;20.23;6.93;;;23.60;78.60;;;;;;5015281;28;20034;-76
2021/10/22 12:33:35;;;;;;;18.45;5.80;;;23.70;78.80;;;;;;5016777;28;20438;-74
2021/10/22 12:36:15;;;;;;;23.60;6.13;;;23.70;78.60;;;;;;5016663;28;20105;-76
2021/10/22 12:38:41;;;;;;;19.38;6.15;;;23.80;78.80;;;;;;5016649;28;20471;-76
2021/10/22 12:41:11;;;;;;;20.90;6.47;;;23.80;78.20;;;;;;5016477;28;20021;-76
2021/10/22 12:43:37;;;;;;;16.33;6.47;;;23.90;78.80;;;;;;5016485;28;20055;-76
2021/10/22 12:46:05;;;;;;;18.48;6.35;;;23.90;77.80;;;;;;5016336;28;20036;-77
2021/10/22 12:48:31;;;;;;;24.45;6.93;;;23.90;77.90;;;;;;5014887;28;20030;-76